Time;durP1;ratioP1;P1;durP2;ratioP2;P2;SDS_P1;SDS_P2;PMS_P1;PMS_P2;Temp;Humidity;BMP_temperature;BMP_pressure;BME280_temperature;BME280_humidity;BME280_pressure;Samples;Min_cycle;Max_cycle;Signal;HPM_P1;HPM_P2
2022/03/17 00:01:25;;;;;;;26.50;23.47;;;9.50;99.90;;;;;;5021302;28;20259;-82
2022/03/17 00:03:51;;;;;;;29.42;25.63;;;9.50;99.90;;;;;;5025823;28;20889;-81
2022/03/17 00:06:17;;;;;;;28.90;24.83;;;9.30;99.90;;;;;;5051442;28;21051;-83
2022/03/17 00:08:43;;;;;;;31.47;28.03;;;9.30;99.90;;;;;;5044931;28;20968;-81
2022/03/17 00:11:08;;;;;;;31.97;25.23;;;9.30;99.90;;;;;;5042622;28;20216;-83
2022/03/17 00:13:34;;;;;;;29.23;24.60;;;9.80;99.90;;;;;;5025015;28;20258;-83
2022/03/17 00:15:59;;;;;;;30.83;25.67;;;9.00;99.90;;;;;;5031755;28;20178;-83
2022/03/17 00:18:25;;;;;;;29.23;24.90;;;9.30;99.90;;;;;;5029231;28;20177;-83
2022/03/17 00:20:51;;;;;;;29.37;25.37;;;9.40;99.90;;;;;;5023513;28;20197;-82
2022/03/17 00:23:16;;;;;;;26.77;23.20;;;9.30;99.90;;;;;;5030030;28;20210;-83
2022/03/17 00:25:42;;;;;;;28.27;24.20;;;9.10;99.90;;;;;;5031049;28;20439;-83
2022/03/17 00:28:07;;;;;;;29.67;25.07;;;8.90;99.90;;;;;;5032199;28;20264;-82
2022/03/17 00:30:34;;;;;;;28.37;24.10;;;9.20;99.90;;;;;;5041367;28;20560;-80
2022/03/17 00:32:59;;;;;;;30.90;25.58;;;9.40;99.90;;;;;;5034833;28;20202;-80
2022/03/17 00:35:38;;;;;;;30.80;25.57;;;8.70;99.90;;;;;;5043195;28;20695;-82
2022/03/17 00:38:11;;;;;;;28.42;24.00;;;8.80;99.90;;;;;;5029677;28;20190;-82
2022/03/17 00:40:38;;;;;;;28.70;25.60;;;8.70;99.90;;;;;;5020675;28;20495;-82
2022/03/17 00:43:09;;;;;;;33.63;27.08;;;9.30;99.90;;;;;;5039341;28;20788;-81
2022/03/17 00:45:35;;;;;;;29.65;26.13;;;9.10;99.90;;;;;;5022134;28;20190;-82
2022/03/17 00:48:01;;;;;;;31.48;26.58;;;8.50;99.90;;;;;;5027099;28;20213;-81
2022/03/17 00:50:27;;;;;;;29.63;25.65;;;8.60;99.90;;;;;;5036840;28;20175;-80
2022/03/17 00:52:53;;;;;;;33.20;27.40;;;9.10;99.90;;;;;;5046308;28;20209;-82
2022/03/17 00:55:19;;;;;;;30.60;25.60;;;9.40;99.90;;;;;;5024626;28;20183;-83
2022/03/17 00:57:45;;;;;;;32.30;26.85;;;8.90;99.90;;;;;;5020844;28;20440;-81
2022/03/17 01:00:14;;;;;;;30.17;26.13;;;9.10;99.90;;;;;;5038975;28;20189;-81
2022/03/17 01:02:43;;;;;;;30.13;25.05;;;8.80;99.90;;;;;;5031146;28;20521;-82
2022/03/17 01:05:10;;;;;;;31.83;26.08;;;8.50;99.90;;;;;;5028316;28;20190;-81
2022/03/17 01:07:37;;;;;;;29.58;25.05;;;9.20;99.90;;;;;;5028717;28;20685;-81
2022/03/17 01:10:04;;;;;;;29.70;25.02;;;8.80;99.90;;;;;;5029888;28;20883;-81
2022/03/17 01:12:30;;;;;;;34.25;27.33;;;8.90;99.90;;;;;;5031367;28;20174;-81
2022/03/17 01:14:56;;;;;;;31.20;26.10;;;8.30;99.90;;;;;;5028322;28;20192;-80
2022/03/17 01:17:21;;;;;;;27.97;24.30;;;9.00;99.90;;;;;;5031405;28;20990;-82
2022/03/17 01:19:47;;;;;;;32.10;26.83;;;8.50;99.90;;;;;;5029362;28;20298;-82
2022/03/17 01:22:12;;;;;;;28.33;23.73;;;8.70;99.90;;;;;;5018296;28;20185;-83
2022/03/17 01:24:38;;;;;;;30.60;25.03;;;8.80;99.90;;;;;;5028878;28;20708;-81
2022/03/17 01:27:03;;;;;;;28.17;24.07;;;8.70;99.90;;;;;;5053478;28;20178;-80
2022/03/17 01:29:29;;;;;;;32.80;26.30;;;8.90;99.90;;;;;;5035775;28;20666;-83
2022/03/17 01:31:55;;;;;;;28.70;25.60;;;8.40;99.90;;;;;;5048795;28;20702;-81
2022/03/17 01:34:20;;;;;;;28.83;25.70;;;8.50;99.90;;;;;;5044736;28;20201;-80
2022/03/17 01:36:46;;;;;;;29.20;25.80;;;8.10;99.90;;;;;;5034608;28;20193;-82
2022/03/17 01:39:11;;;;;;;31.27;26.20;;;8.70;99.90;;;;;;5034971;28;20232;-82
2022/03/17 01:41:39;;;;;;;32.27;26.83;;;8.60;99.90;;;;;;5049077;28;20643;-82
2022/03/17 01:44:05;;;;;;;30.90;26.60;;;8.50;99.90;;;;;;5037889;28;20252;-83
2022/03/17 01:47:26;;;;;;;39.38;27.30;;;8.70;99.90;;;;;;5036043;28;20193;-82
2022/03/17 01:49:17;;;;;;;31.00;25.70;;;8.10;99.90;;;;;;5042982;28;20685;-81
2022/03/17 01:51:43;;;;;;;30.83;25.20;;;8.70;99.90;;;;;;5032160;28;20201;-82
2022/03/17 01:54:09;;;;;;;31.35;26.08;;;8.80;99.90;;;;;;5032032;28;20202;-81
2022/03/17 01:56:35;;;;;;;31.83;26.33;;;8.40;99.90;;;;;;5035512;28;20284;-81
2022/03/17 01:59:00;;;;;;;30.03;24.20;;;8.60;99.90;;;;;;5050907;28;20189;-81
2022/03/17 02:01:26;;;;;;;30.40;25.93;;;8.50;99.90;;;;;;5031896;28;20220;-81
2022/03/17 02:03:53;;;;;;;30.03;25.97;;;8.10;99.90;;;;;;5029704;28;20284;-80
2022/03/17 02:06:19;;;;;;;30.05;25.45;;;8.50;99.90;;;;;;5042629;28;20664;-82
2022/03/17 02:08:44;;;;;;;31.50;25.43;;;8.90;99.90;;;;;;5030283;28;20210;-82
2022/03/17 02:13:54;;;;;;;34.28;26.98;;;8.30;99.90;;;;;;5040705;28;20264;-81
2022/03/17 02:16:20;;;;;;;31.80;26.57;;;8.50;99.90;;;;;;5051651;28;20653;-81
2022/03/17 02:18:46;;;;;;;30.77;25.60;;;7.80;99.90;;;;;;5029539;28;20721;-82
2022/03/17 02:21:12;;;;;;;31.02;26.25;;;8.50;99.90;;;;;;5028494;28;20194;-81
2022/03/17 02:26:22;;;;;;;30.80;25.20;;;8.20;99.90;;;;;;5053239;28;20397;-80
2022/03/17 02:28:48;;;;;;;31.10;26.30;;;8.70;99.90;;;;;;5028715;28;20206;-81
2022/03/17 02:31:13;;;;;;;30.83;25.53;;;8.20;99.90;;;;;;5042095;28;20197;-80
2022/03/17 02:33:41;;;;;;;31.53;25.93;;;8.60;99.90;;;;;;5026346;28;20237;-81
2022/03/17 02:36:08;;;;;;;29.98;24.55;;;8.60;99.90;;;;;;5049188;28;20284;-82
2022/03/17 02:38:33;;;;;;;29.33;25.40;;;8.90;99.90;;;;;;5041707;28;20177;-81
2022/03/17 02:40:59;;;;;;;31.53;24.00;;;8.90;99.90;;;;;;5052043;28;20635;-82
2022/03/17 02:43:26;;;;;;;29.10;24.00;;;8.60;99.90;;;;;;5023080;28;20201;-82
2022/03/17 02:45:51;;;;;;;29.85;25.20;;;8.20;99.90;;;;;;5042453;28;20212;-82
2022/03/17 02:48:17;;;;;;;30.30;25.60;;;8.60;99.90;;;;;;5029699;28;20225;-82
2022/03/17 02:50:45;;;;;;;31.65;24.65;;;8.10;99.90;;;;;;5031265;28;20181;-82
2022/03/17 02:53:11;;;;;;;31.85;25.52;;;8.70;99.90;;;;;;5049255;28;20316;-82
2022/03/17 02:55:39;;;;;;;31.27;26.33;;;8.30;99.90;;;;;;5047282;28;20221;-82
2022/03/17 02:58:07;;;;;;;31.48;24.17;;;8.10;99.90;;;;;;5031884;28;20192;-82
2022/03/17 03:00:33;;;;;;;31.83;25.75;;;8.50;99.90;;;;;;5030820;28;20201;-82
2022/03/17 03:02:59;;;;;;;29.73;25.27;;;8.60;99.90;;;;;;5031294;28;20231;-83
2022/03/17 03:05:26;;;;;;;32.70;26.23;;;8.50;99.90;;;;;;5027983;28;20545;-82
2022/03/17 03:07:52;;;;;;;29.02;23.95;;;8.50;99.90;;;;;;5028670;28;20341;-82
2022/03/17 03:10:18;;;;;;;31.87;25.47;;;8.20;99.90;;;;;;5032023;28;20272;-82
2022/03/17 03:12:43;;;;;;;29.40;24.73;;;8.30;99.90;;;;;;5051904;28;20865;-82
2022/03/17 03:15:09;;;;;;;31.37;26.33;;;8.10;99.90;;;;;;5031118;28;20174;-82
2022/03/17 03:17:35;;;;;;;29.20;25.47;;;8.50;99.90;;;;;;5047521;28;20700;-82
2022/03/17 03:20:00;;;;;;;31.27;25.77;;;8.60;99.90;;;;;;5036056;28;20186;-82
2022/03/17 03:22:33;;;;;;;30.50;24.97;;;8.90;99.90;;;;;;5048693;28;20186;-82
2022/03/17 03:24:58;;;;;;;26.60;23.70;;;8.30;99.90;;;;;;5046665;28;20194;-81
2022/03/17 03:27:27;;;;;;;32.83;26.20;;;8.50;99.90;;;;;;5044387;28;20186;-81
2022/03/17 03:29:57;;;;;;;33.13;26.70;;;8.70;99.90;;;;;;5047613;28;20700;-82
2022/03/17 03:32:25;;;;;;;32.13;26.38;;;8.50;99.90;;;;;;5024438;28;20194;-83
2022/03/17 03:34:51;;;;;;;34.28;27.60;;;8.50;99.90;;;;;;5031988;28;20557;-82
2022/03/17 03:37:22;;;;;;;30.00;24.77;;;8.60;99.90;;;;;;5051069;28;20178;-81
2022/03/17 03:39:48;;;;;;;29.55;24.83;;;8.30;99.90;;;;;;5033684;28;20446;-82
2022/03/17 03:42:14;;;;;;;31.00;25.25;;;8.20;99.90;;;;;;5050977;28;20243;-82
2022/03/17 03:44:39;;;;;;;32.13;25.97;;;8.80;99.90;;;;;;5047281;28;20202;-82
2022/03/17 03:47:06;;;;;;;29.97;25.60;;;8.70;99.90;;;;;;5035135;28;20179;-82
2022/03/17 03:49:33;;;;;;;30.38;25.08;;;8.90;99.90;;;;;;5034768;28;20202;-82
2022/03/17 03:51:58;;;;;;;31.95;25.67;;;8.60;99.90;;;;;;5032008;28;20638;-81
2022/03/17 03:54:24;;;;;;;29.60;25.53;;;8.80;99.90;;;;;;5034489;28;20208;-83
2022/03/17 03:56:52;;;;;;;28.90;24.23;;;9.10;99.90;;;;;;5031635;28;20577;-82
2022/03/17 03:59:21;;;;;;;30.15;25.08;;;8.90;99.90;;;;;;5024277;28;20415;-82
2022/03/17 04:01:48;;;;;;;30.15;25.13;;;9.10;99.90;;;;;;5035975;28;20617;-82
2022/03/17 04:04:20;;;;;;;29.98;25.85;;;8.40;99.90;;;;;;5034359;28;20237;-82
2022/03/17 04:06:50;;;;;;;30.85;26.27;;;9.20;99.90;;;;;;5054639;28;20189;-81
2022/03/17 04:09:17;;;;;;;34.75;26.38;;;8.90;99.90;;;;;;5035996;28;20252;-82
2022/03/17 04:11:44;;;;;;;31.58;25.65;;;9.20;99.90;;;;;;5042884;28;20190;-82
2022/03/17 04:14:11;;;;;;;31.73;26.65;;;8.90;99.90;;;;;;5028916;28;20291;-81
2022/03/17 04:16:37;;;;;;;32.17;26.45;;;9.00;99.90;;;;;;5029990;28;20200;-82
2022/03/17 04:19:03;;;;;;;30.13;25.92;;;8.70;99.90;;;;;;5027167;28;20609;-82
2022/03/17 04:21:30;;;;;;;30.07;26.70;;;8.80;99.90;;;;;;5022752;28;20181;-82
2022/03/17 04:23:56;;;;;;;29.55;24.30;;;8.20;99.90;;;;;;5030558;28;20474;-82
2022/03/17 04:26:21;;;;;;;32.08;25.77;;;8.30;99.90;;;;;;5032880;28;20185;-81
2022/03/17 04:28:47;;;;;;;30.60;24.83;;;8.30;99.90;;;;;;5027738;28;20229;-82
2022/03/17 04:31:13;;;;;;;31.83;26.40;;;9.20;99.90;;;;;;5021420;28;20181;-82
2022/03/17 04:33:38;;;;;;;31.93;26.63;;;9.30;99.90;;;;;;5044874;28;20237;-82
2022/03/17 04:36:05;;;;;;;32.07;26.90;;;8.50;99.90;;;;;;5041896;28;20200;-81
2022/03/17 04:38:31;;;;;;;32.53;25.45;;;9.10;99.90;;;;;;5028584;28;20182;-82
2022/03/17 04:40:57;;;;;;;31.65;26.25;;;9.10;99.90;;;;;;5031419;28;20189;-82
2022/03/17 04:43:23;;;;;;;30.10;24.63;;;8.60;99.90;;;;;;5028623;28;20577;-82
2022/03/17 04:45:48;;;;;;;30.13;24.60;;;8.50;99.90;;;;;;5029462;28;20231;-82
2022/03/17 04:48:15;;;;;;;32.00;26.83;;;8.50;99.90;;;;;;5030733;28;20202;-80
2022/03/17 04:50:41;;;;;;;33.70;26.13;;;8.30;99.90;;;;;;5025167;28;20645;-81
2022/03/17 04:55:51;;;;;;;31.55;25.65;;;8.50;99.90;;;;;;5038361;28;20193;-82
2022/03/17 04:58:17;;;;;;;32.10;25.77;;;9.00;99.90;;;;;;5041219;28;20240;-81
2022/03/17 05:00:43;;;;;;;33.57;28.37;;;8.90;99.90;;;;;;5024953;28;20610;-82
2022/03/17 05:03:09;;;;;;;31.17;26.57;;;8.60;99.90;;;;;;5029089;28;20197;-83
2022/03/17 05:05:34;;;;;;;34.83;27.43;;;9.10;99.90;;;;;;5015589;28;20273;-80
2022/03/17 05:08:00;;;;;;;32.50;26.00;;;8.90;99.90;;;;;;5020991;28;20458;-83
2022/03/17 05:10:28;;;;;;;35.10;26.10;;;9.30;99.90;;;;;;5031304;28;20200;-83
2022/03/17 05:12:55;;;;;;;34.92;28.50;;;9.00;99.90;;;;;;5028226;28;20247;-83
2022/03/17 05:15:20;;;;;;;33.72;27.20;;;8.90;99.90;;;;;;5028819;28;20208;-82
2022/03/17 05:17:47;;;;;;;36.07;28.03;;;8.60;99.90;;;;;;5039871;28;20336;-83
2022/03/17 05:20:13;;;;;;;33.13;26.92;;;9.00;99.90;;;;;;5025400;28;20193;-82
2022/03/17 05:22:39;;;;;;;35.70;26.40;;;9.00;99.90;;;;;;5022515;28;20209;-82
2022/03/17 05:25:10;;;;;;;35.60;28.15;;;9.00;99.90;;;;;;5026303;28;20186;-82
2022/03/17 05:27:40;;;;;;;32.08;25.83;;;9.30;99.90;;;;;;5030478;28;20185;-83
2022/03/17 05:30:06;;;;;;;33.50;26.73;;;8.90;99.90;;;;;;5026245;28;20182;-82
2022/03/17 05:32:32;;;;;;;31.88;26.40;;;8.90;99.90;;;;;;5015228;28;20182;-82
2022/03/17 05:34:58;;;;;;;33.07;26.90;;;9.10;99.90;;;;;;5024460;28;20194;-81
2022/03/17 05:37:24;;;;;;;35.60;28.40;;;8.60;99.90;;;;;;5025878;28;20317;-81
2022/03/17 05:39:51;;;;;;;32.40;27.92;;;8.90;99.90;;;;;;5025234;28;20427;-82
2022/03/17 05:42:17;;;;;;;35.22;28.08;;;8.90;99.90;;;;;;5045162;28;20185;-82
2022/03/17 05:44:42;;;;;;;34.90;26.80;;;9.20;99.90;;;;;;5046749;28;20685;-82
2022/03/17 05:47:08;;;;;;;39.17;28.43;;;9.40;99.90;;;;;;5028094;28;20987;-82
2022/03/17 05:49:33;;;;;;;35.60;27.90;;;9.00;99.90;;;;;;5037612;28;20209;-83
2022/03/17 05:51:59;;;;;;;31.80;25.90;;;8.70;99.90;;;;;;5023308;28;20825;-83
2022/03/17 05:54:25;;;;;;;33.40;26.17;;;8.80;99.90;;;;;;5041765;28;20206;-83
2022/03/17 05:56:50;;;;;;;36.87;27.37;;;9.30;99.90;;;;;;5027948;28;20216;-83
2022/03/17 05:59:16;;;;;;;32.57;27.73;;;9.20;99.90;;;;;;5028776;28;20178;-83
2022/03/17 06:01:41;;;;;;;34.13;27.00;;;9.20;99.90;;;;;;5031322;28;20186;-82
2022/03/17 06:04:07;;;;;;;33.43;25.43;;;8.80;99.90;;;;;;5020584;28;20210;-84
2022/03/17 06:06:33;;;;;;;34.03;26.60;;;9.20;99.90;;;;;;5045427;28;20646;-83
2022/03/17 06:08:58;;;;;;;35.90;27.20;;;9.10;99.90;;;;;;5030263;28;20205;-83
2022/03/17 06:11:24;;;;;;;32.03;25.27;;;9.30;99.90;;;;;;5030725;28;20189;-84
2022/03/17 06:13:49;;;;;;;33.37;27.17;;;8.90;99.90;;;;;;5031927;28;20201;-84
2022/03/17 06:16:15;;;;;;;31.27;25.90;;;8.90;99.90;;;;;;5030943;28;20178;-83
2022/03/17 06:18:41;;;;;;;34.93;26.73;;;9.80;99.90;;;;;;5027207;28;20189;-83
2022/03/17 06:21:07;;;;;;;37.20;28.13;;;9.20;99.90;;;;;;5033120;28;20612;-82
2022/03/17 06:23:32;;;;;;;33.67;25.57;;;9.50;99.90;;;;;;5031135;28;20233;-83
2022/03/17 06:25:59;;;;;;;35.53;28.07;;;9.50;99.90;;;;;;5032128;28;20422;-83
2022/03/17 06:28:24;;;;;;;34.17;26.90;;;9.60;99.90;;;;;;5031620;28;20217;-84
2022/03/17 06:30:51;;;;;;;32.80;25.97;;;9.50;99.90;;;;;;5039126;28;20773;-84
2022/03/17 06:33:17;;;;;;;32.90;26.60;;;9.60;99.90;;;;;;5026807;28;20206;-84
2022/03/17 06:35:42;;;;;;;34.10;25.80;;;9.80;99.90;;;;;;5025709;28;20553;-83
2022/03/17 06:38:08;;;;;;;35.87;28.20;;;9.30;99.90;;;;;;5048186;28;20181;-81
2022/03/17 06:40:35;;;;;;;32.80;26.53;;;9.20;99.90;;;;;;5030890;28;20649;-83
2022/03/17 06:43:04;;;;;;;33.00;27.17;;;9.60;99.90;;;;;;5044191;28;20570;-88
2022/03/17 06:45:30;;;;;;;34.60;26.33;;;9.90;99.90;;;;;;5023409;28;20190;-88
2022/03/17 06:47:55;;;;;;;36.50;28.60;;;9.90;99.90;;;;;;5028161;28;20206;-83
2022/03/17 06:50:21;;;;;;;34.63;27.40;;;10.00;99.90;;;;;;5023882;28;20209;-82
2022/03/17 06:52:47;;;;;;;37.25;26.45;;;10.10;99.90;;;;;;5021750;28;20207;-83
2022/03/17 06:55:14;;;;;;;36.97;27.67;;;9.90;99.90;;;;;;5043059;28;20264;-84
2022/03/17 06:57:41;;;;;;;34.78;25.55;;;10.40;99.90;;;;;;5048616;28;20193;-82
2022/03/17 07:00:14;;;;;;;34.05;26.58;;;9.70;99.90;;;;;;5030288;28;20193;-84
2022/03/17 07:02:40;;;;;;;34.65;27.60;;;9.80;99.90;;;;;;5035310;28;20251;-86
2022/03/17 07:05:06;;;;;;;32.90;27.63;;;9.70;99.90;;;;;;5028856;28;20552;-85
2022/03/17 07:07:33;;;;;;;36.63;27.10;;;9.90;99.90;;;;;;5034939;28;20464;-89
2022/03/17 07:09:58;;;;;;;34.88;27.80;;;9.90;99.90;;;;;;5033375;28;20208;-87
2022/03/17 07:12:24;;;;;;;34.93;27.93;;;9.30;99.90;;;;;;5029074;28;20645;-91
2022/03/17 07:14:50;;;;;;;35.83;27.53;;;9.40;99.90;;;;;;5030159;28;20407;-83
2022/03/17 07:17:20;;;;;;;35.20;28.17;;;9.60;99.90;;;;;;5030601;28;20182;-82
2022/03/17 07:22:22;;;;;;;33.63;25.88;;;10.10;99.90;;;;;;5040995;28;20691;-83
2022/03/17 07:24:48;;;;;;;31.45;25.98;;;10.50;99.90;;;;;;5028699;28;20186;-83
2022/03/17 07:27:13;;;;;;;35.23;27.57;;;10.30;99.90;;;;;;5045794;28;20554;-83
2022/03/17 07:29:39;;;;;;;33.00;28.90;;;10.90;99.90;;;;;;5050317;28;20250;-82
2022/03/17 07:32:05;;;;;;;36.37;27.87;;;10.60;99.90;;;;;;5047329;28;20467;-81
2022/03/17 07:34:30;;;;;;;38.33;28.60;;;10.80;99.90;;;;;;5039996;28;20697;-81
2022/03/17 07:36:56;;;;;;;31.63;27.30;;;10.10;99.90;;;;;;5024095;28;20191;-85
2022/03/17 07:39:21;;;;;;;32.83;27.20;;;10.30;99.90;;;;;;5045245;28;20182;-82
2022/03/17 07:41:47;;;;;;;34.43;27.33;;;10.70;99.90;;;;;;5029742;28;20189;-81
2022/03/17 07:44:13;;;;;;;32.50;26.40;;;10.90;99.90;;;;;;5039002;28;20219;-83
2022/03/17 07:46:39;;;;;;;33.50;27.45;;;10.70;99.90;;;;;;5028102;28;20532;-82
2022/03/17 07:49:05;;;;;;;33.08;28.00;;;11.30;99.90;;;;;;5025201;28;20220;-81
2022/03/17 07:51:31;;;;;;;30.93;27.10;;;11.00;99.90;;;;;;5019122;28;20192;-85
2022/03/17 07:53:56;;;;;;;33.20;27.10;;;11.30;99.90;;;;;;5029683;28;20219;-84
2022/03/17 07:56:22;;;;;;;38.60;29.10;;;13.30;99.90;;;;;;5033913;28;20438;-84
2022/03/17 07:58:48;;;;;;;31.65;27.00;;;11.20;99.90;;;;;;5026394;28;20187;-85
2022/03/17 08:01:15;;;;;;;33.25;26.52;;;11.80;99.90;;;;;;5021060;28;20291;-84
2022/03/17 08:03:41;;;;;;;35.22;28.02;;;11.60;99.90;;;;;;5023589;28;20231;-82
2022/03/17 08:06:07;;;;;;;33.40;25.17;;;11.80;99.90;;;;;;5031408;28;20203;-82
2022/03/17 08:08:34;;;;;;;36.17;29.73;;;11.50;99.90;;;;;;5029452;28;20298;-84
2022/03/17 08:10:59;;;;;;;38.92;27.95;;;11.10;99.90;;;;;;5032144;28;20187;-84
2022/03/17 08:13:25;;;;;;;35.33;28.40;;;11.40;99.90;;;;;;5016982;28;20204;-83
2022/03/17 08:15:51;;;;;;;32.67;27.67;;;11.50;99.90;;;;;;5027089;28;20245;-84
2022/03/17 08:18:16;;;;;;;34.87;28.17;;;11.00;99.90;;;;;;5031512;28;20185;-84
2022/03/17 08:20:42;;;;;;;36.20;27.90;;;11.70;99.90;;;;;;5030528;28;20184;-82
2022/03/17 08:23:08;;;;;;;35.43;27.40;;;12.10;99.90;;;;;;5023694;28;22104;-85
2022/03/17 08:25:35;;;;;;;37.17;27.70;;;11.90;99.90;;;;;;5022656;28;20187;-85
2022/03/17 08:28:03;;;;;;;35.42;29.08;;;11.40;99.90;;;;;;5030001;28;20212;-83
2022/03/17 08:30:32;;;;;;;39.35;28.08;;;11.80;99.90;;;;;;5028909;28;20180;-83
2022/03/17 08:32:59;;;;;;;28.95;25.83;;;11.60;99.90;;;;;;5025993;28;20208;-83
2022/03/17 08:35:27;;;;;;;33.80;27.27;;;11.80;99.90;;;;;;5026689;28;20188;-86
2022/03/17 08:37:53;;;;;;;35.10;27.40;;;11.60;99.90;;;;;;5023327;28;20199;-87
2022/03/17 08:40:18;;;;;;;31.43;27.13;;;11.50;99.90;;;;;;5027659;28;20183;-86
2022/03/17 08:42:44;;;;;;;31.90;26.00;;;11.50;99.90;;;;;;5020070;28;20221;-87
2022/03/17 08:50:41;;;;;;;33.53;27.80;;;11.90;99.60;;;;;;5035415;28;20225;-82
2022/03/17 08:53:07;;;;;;;32.35;27.20;;;12.00;99.50;;;;;;5035948;28;20664;-81
2022/03/17 08:55:34;;;;;;;34.93;27.23;;;11.70;99.40;;;;;;5034058;28;20199;-83
2022/03/17 08:58:00;;;;;;;33.05;28.05;;;11.90;99.30;;;;;;5028827;28;21308;-85
2022/03/17 09:00:26;;;;;;;30.43;26.90;;;12.30;99.70;;;;;;5032559;28;20304;-84
2022/03/17 09:02:53;;;;;;;31.50;26.23;;;12.10;99.40;;;;;;5021059;28;20519;-83
2022/03/17 09:05:19;;;;;;;38.00;26.95;;;12.40;99.70;;;;;;5018944;28;20183;-82
2022/03/17 09:07:44;;;;;;;31.20;25.87;;;11.90;99.90;;;;;;5031729;28;20203;-85
2022/03/17 09:10:10;;;;;;;46.63;34.27;;;11.90;99.90;;;;;;5030653;28;20268;-84
2022/03/17 09:12:37;;;;;;;38.83;30.27;;;12.30;99.90;;;;;;5028148;28;20200;-85
2022/03/17 09:15:04;;;;;;;37.72;27.55;;;12.00;99.70;;;;;;5022138;28;20178;-84
2022/03/17 09:17:30;;;;;;;33.70;27.63;;;11.90;99.90;;;;;;5022164;28;20184;-79
2022/03/17 09:19:55;;;;;;;38.13;27.87;;;12.30;99.90;;;;;;5033233;28;20193;-79
2022/03/17 09:22:21;;;;;;;33.47;26.40;;;11.50;99.90;;;;;;5042634;28;20664;-78
2022/03/17 09:24:48;;;;;;;34.43;27.40;;;11.80;99.90;;;;;;5038460;28;20188;-79
2022/03/17 09:27:15;;;;;;;30.77;25.60;;;11.50;99.80;;;;;;5035242;28;20190;-79
2022/03/17 09:29:40;;;;;;;31.92;26.52;;;11.80;99.70;;;;;;5037772;28;20679;-78
2022/03/17 09:32:09;;;;;;;37.63;27.80;;;12.00;99.90;;;;;;5031908;28;20189;-79
2022/03/17 09:34:35;;;;;;;35.42;26.83;;;12.10;99.90;;;;;;5022287;28;20981;-79
2022/03/17 09:37:01;;;;;;;35.17;27.15;;;12.30;99.90;;;;;;5029677;28;20205;-78
2022/03/17 09:42:15;;;;;;;37.13;27.25;;;12.60;99.80;;;;;;5038013;28;20204;-79
2022/03/17 09:44:42;;;;;;;33.53;26.85;;;12.00;99.20;;;;;;5028089;28;20698;-80
2022/03/17 09:47:09;;;;;;;35.45;28.52;;;12.00;99.00;;;;;;5047488;28;20196;-78
2022/03/17 09:49:37;;;;;;;32.30;26.23;;;12.50;99.00;;;;;;5021021;28;20308;-77
2022/03/17 09:52:11;;;;;;;30.40;26.13;;;13.00;99.40;;;;;;5022097;28;20214;-81
2022/03/17 09:54:37;;;;;;;34.35;27.40;;;12.50;98.80;;;;;;5023397;28;20245;-81
2022/03/17 09:57:03;;;;;;;31.27;26.90;;;12.60;98.50;;;;;;5043099;28;20352;-82
2022/03/17 09:59:29;;;;;;;30.08;26.77;;;13.10;98.50;;;;;;5026509;28;20174;-82
2022/03/17 10:01:57;;;;;;;29.33;26.00;;;13.00;98.20;;;;;;5041608;28;20188;-81
2022/03/17 10:04:23;;;;;;;31.17;25.85;;;12.70;98.40;;;;;;5028446;28;20217;-81
2022/03/17 10:06:49;;;;;;;31.50;25.77;;;12.70;98.30;;;;;;5050988;28;20200;-82
2022/03/17 10:09:16;;;;;;;31.70;25.38;;;12.80;98.30;;;;;;5024626;28;20206;-79
2022/03/17 10:11:42;;;;;;;35.25;25.98;;;12.60;98.80;;;;;;5046377;28;20242;-79
2022/03/17 10:14:09;;;;;;;32.92;26.48;;;12.50;99.10;;;;;;5022791;28;20236;-82
2022/03/17 10:16:37;;;;;;;32.15;26.27;;;12.90;99.20;;;;;;5034216;28;20185;-84
2022/03/17 10:19:06;;;;;;;32.40;25.90;;;13.20;98.80;;;;;;5028879;28;20743;-84
2022/03/17 10:21:33;;;;;;;29.33;24.60;;;13.40;98.50;;;;;;5043675;28;20182;-83
2022/03/17 10:24:06;;;;;;;27.00;23.80;;;13.20;98.30;;;;;;5031514;28;20201;-79
2022/03/17 10:26:42;;;;;;;31.67;26.23;;;13.40;98.20;;;;;;5028301;28;20201;-79
2022/03/17 10:29:22;;;;;;;30.23;25.02;;;13.50;97.80;;;;;;5041481;28;20198;-84
2022/03/17 10:32:00;;;;;;;32.00;25.45;;;13.80;97.50;;;;;;5032288;28;20189;-82
2022/03/17 10:34:33;;;;;;;30.58;24.38;;;13.90;97.40;;;;;;5031110;28;20242;-84
2022/03/17 10:37:12;;;;;;;30.70;25.65;;;13.90;97.50;;;;;;5048071;28;20369;-82
2022/03/17 10:39:44;;;;;;;26.50;22.20;;;13.00;97.70;;;;;;5051918;28;20201;-82
2022/03/17 10:42:19;;;;;;;28.67;24.58;;;13.90;97.90;;;;;;5029552;28;20198;-81
2022/03/17 10:44:50;;;;;;;26.00;22.25;;;14.60;97.60;;;;;;5035165;28;20218;-83
2022/03/17 10:47:33;;;;;;;26.10;21.48;;;14.10;96.90;;;;;;5034158;28;20181;-86
2022/03/17 10:50:10;;;;;;;24.67;21.42;;;14.10;96.90;;;;;;5030385;28;20197;-78
2022/03/17 10:52:56;;;;;;;30.35;23.95;;;14.20;97.60;;;;;;5036256;28;20182;-80
2022/03/17 10:55:25;;;;;;;27.50;22.95;;;14.10;98.00;;;;;;5029445;28;20212;-81
2022/03/17 10:57:52;;;;;;;30.42;24.33;;;14.30;97.30;;;;;;5041530;28;20649;-81
2022/03/17 11:00:20;;;;;;;32.67;25.90;;;14.40;96.90;;;;;;5030675;28;20339;-81
2022/03/17 11:02:49;;;;;;;34.45;24.42;;;14.30;96.20;;;;;;5050063;28;20288;-80
2022/03/17 11:05:19;;;;;;;29.75;24.02;;;14.40;96.40;;;;;;5037629;28;20209;-81
2022/03/17 11:07:46;;;;;;;32.13;26.42;;;14.80;96.00;;;;;;5031917;28;20295;-80
2022/03/17 11:10:15;;;;;;;32.42;26.75;;;14.60;96.20;;;;;;5031745;28;20178;-80
2022/03/17 11:12:42;;;;;;;31.30;26.63;;;14.80;96.10;;;;;;5031675;28;20235;-81
2022/03/17 11:15:08;;;;;;;33.05;29.50;;;14.30;95.80;;;;;;5042892;28;20231;-80
2022/03/17 11:17:40;;;;;;;28.90;23.65;;;14.10;96.10;;;;;;5031288;28;20293;-80
2022/03/17 11:20:07;;;;;;;26.60;20.88;;;13.90;97.80;;;;;;5045563;28;20267;-81
2022/03/17 11:22:34;;;;;;;33.33;23.63;;;13.60;98.50;;;;;;5029648;28;20650;-80
2022/03/17 11:25:25;;;;;;;31.77;23.92;;;15.50;99.90;;;;;;5043824;28;20182;-81
2022/03/17 11:27:57;;;;;;;30.17;25.48;;;13.90;98.90;;;;;;5029230;28;20183;-80
2022/03/17 11:30:27;;;;;;;29.90;23.77;;;14.00;98.70;;;;;;5030509;28;20186;-82
2022/03/17 11:32:55;;;;;;;34.92;22.75;;;13.70;99.10;;;;;;5045245;28;20335;-80
2022/03/17 11:35:25;;;;;;;32.15;24.83;;;13.60;99.70;;;;;;5030114;28;20205;-79
2022/03/17 11:38:17;;;;;;;28.98;23.98;;;13.50;99.90;;;;;;5050389;28;20260;-81
2022/03/17 11:41:10;;;;;;;34.05;23.70;;;13.30;99.90;;;;;;5049078;28;20231;-82
2022/03/17 11:43:45;;;;;;;31.10;23.30;;;13.30;99.90;;;;;;5023483;28;20593;-80
2022/03/17 11:46:18;;;;;;;29.98;24.42;;;13.20;99.90;;;;;;5036549;28;20219;-80
2022/03/17 11:48:45;;;;;;;33.15;24.45;;;13.60;99.90;;;;;;5020991;28;20551;-86
2022/03/17 11:51:13;;;;;;;29.40;24.67;;;13.10;99.90;;;;;;5027595;28;20181;-85
2022/03/17 11:53:47;;;;;;;28.20;24.25;;;13.30;99.90;;;;;;5045771;28;20209;-84
2022/03/17 11:56:53;;;;;;;29.80;24.42;;;13.10;99.90;;;;;;5031150;28;20426;-85
2022/03/17 11:59:22;;;;;;;33.55;24.83;;;13.10;99.90;;;;;;5020669;28;20193;-86
2022/03/17 12:01:48;;;;;;;34.95;26.55;;;13.70;99.90;;;;;;5029148;28;20186;-85
2022/03/17 12:04:24;;;;;;;33.88;27.10;;;13.10;99.90;;;;;;5043668;28;20206;-85
2022/03/17 12:06:55;;;;;;;40.63;31.17;;;13.00;99.90;;;;;;5029934;28;20278;-82
2022/03/17 12:09:31;;;;;;;32.28;26.60;;;13.00;99.90;;;;;;5044891;28;20294;-83
2022/03/17 12:11:57;;;;;;;30.98;25.30;;;12.40;99.90;;;;;;5044564;28;20649;-81
2022/03/17 12:14:24;;;;;;;31.53;26.17;;;13.50;99.90;;;;;;5016993;28;20427;-83
2022/03/17 12:17:15;;;;;;;33.20;28.10;;;13.10;99.90;;;;;;5038753;28;20441;-81
2022/03/17 12:19:48;;;;;;;33.30;27.58;;;13.10;99.90;;;;;;5024589;28;20189;-81
2022/03/17 12:22:37;;;;;;;33.78;28.02;;;12.90;99.90;;;;;;5028024;28;20575;-83
2022/03/17 12:25:19;;;;;;;34.55;26.42;;;13.00;99.90;;;;;;5016052;28;20185;-82
2022/03/17 12:27:53;;;;;;;32.45;27.10;;;13.40;99.90;;;;;;5028882;28;20537;-87
2022/03/17 12:30:20;;;;;;;33.13;27.15;;;13.10;99.90;;;;;;5028230;28;20193;-85
2022/03/17 12:32:59;;;;;;;35.33;28.52;;;13.30;99.90;;;;;;5029610;28;20198;-84
2022/03/17 12:35:27;;;;;;;32.50;27.45;;;13.00;99.90;;;;;;5027156;28;20273;-86
2022/03/17 12:38:07;;;;;;;36.03;27.73;;;13.30;99.90;;;;;;5029720;28;20188;-86
2022/03/17 12:40:35;;;;;;;34.38;26.90;;;13.10;99.90;;;;;;5031719;28;20245;-84
2022/03/17 12:43:11;;;;;;;32.22;27.23;;;13.60;99.90;;;;;;5025974;28;20205;-83
2022/03/17 12:45:37;;;;;;;33.38;26.42;;;13.50;99.90;;;;;;5023799;28;20192;-84
2022/03/17 12:48:09;;;;;;;33.50;26.80;;;13.10;99.90;;;;;;5046387;28;20216;-84
2022/03/17 12:50:35;;;;;;;34.22;25.55;;;13.40;99.90;;;;;;5033578;28;20454;-85
2022/03/17 12:53:01;;;;;;;34.10;27.73;;;13.50;99.90;;;;;;5028168;28;20210;-84
2022/03/17 12:55:27;;;;;;;35.80;27.43;;;13.80;99.90;;;;;;5024303;28;20190;-82